Time;durP1;ratioP1;P1;durP2;ratioP2;P2;SDS_P1;SDS_P2;PMS_P1;PMS_P2;Temp;Humidity;BMP_temperature;BMP_pressure;BME280_temperature;BME280_humidity;BME280_pressure;Samples;Min_cycle;Max_cycle;Signal;HPM_P1;HPM_P2
2022/01/01 00:00:46;;;;;;;20.40;16.88;;;22.00;61.70;;;;;;5010336;28;20309;-58
2022/01/01 00:03:12;;;;;;;33.65;18.58;;;22.00;62.00;;;;;;5012689;28;20075;-59
2022/01/01 00:05:37;;;;;;;24.02;17.42;;;22.00;62.00;;;;;;5009258;28;20799;-59
2022/01/01 00:08:05;;;;;;;26.40;18.50;;;22.00;61.90;;;;;;5013507;28;20465;-59
2022/01/01 00:10:31;;;;;;;21.75;17.30;;;22.00;62.00;;;;;;5010837;28;21806;-59
2022/01/01 00:12:57;;;;;;;25.52;16.73;;;22.00;62.00;;;;;;5012962;28;20041;-58
2022/01/01 00:15:23;;;;;;;23.10;16.88;;;22.00;62.00;;;;;;5011615;28;20033;-59
2022/01/01 00:17:48;;;;;;;25.60;17.95;;;22.00;62.00;;;;;;5012831;28;20064;-59
2022/01/01 00:20:15;;;;;;;23.98;17.35;;;22.00;62.00;;;;;;5012158;28;29335;-58
2022/01/01 00:22:42;;;;;;;29.63;18.58;;;22.00;62.00;;;;;;5012110;28;20073;-57
2022/01/01 00:25:08;;;;;;;21.38;17.42;;;22.00;62.00;;;;;;5010828;28;20060;-58
2022/01/01 00:27:35;;;;;;;31.10;18.15;;;22.00;62.00;;;;;;5009890;28;20551;-59
2022/01/01 00:30:00;;;;;;;22.50;18.83;;;22.00;62.00;;;;;;5010282;28;20128;-59
2022/01/01 00:32:26;;;;;;;24.65;17.88;;;22.00;61.80;;;;;;5008613;28;20563;-58
2022/01/01 00:34:52;;;;;;;24.08;18.10;;;22.00;61.80;;;;;;5012049;28;20555;-58
2022/01/01 00:37:18;;;;;;;25.50;18.95;;;22.00;61.70;;;;;;5011187;28;20042;-58
2022/01/01 00:39:44;;;;;;;27.38;18.70;;;22.00;61.80;;;;;;5012837;28;20065;-59
2022/01/01 00:42:10;;;;;;;29.13;18.63;;;22.00;61.90;;;;;;5010638;28;20108;-58
2022/01/01 00:44:36;;;;;;;24.17;19.65;;;22.00;61.60;;;;;;5011788;28;20523;-58
2022/01/01 00:47:02;;;;;;;24.33;20.05;;;22.00;61.80;;;;;;5010758;28;20470;-59
2022/01/01 00:49:29;;;;;;;25.73;20.33;;;22.00;61.70;;;;;;5008377;28;25470;-58
2022/01/01 00:51:55;;;;;;;25.65;19.63;;;22.00;61.60;;;;;;5010909;28;20049;-59
2022/01/01 00:54:20;;;;;;;24.80;19.33;;;22.00;61.60;;;;;;5009311;28;20450;-57
2022/01/01 00:56:46;;;;;;;24.02;19.73;;;22.00;61.70;;;;;;5011415;28;20069;-58
2022/01/01 00:59:12;;;;;;;23.20;18.95;;;22.00;61.60;;;;;;5010881;28;20091;-59
2022/01/01 01:01:38;;;;;;;32.40;21.40;;;22.00;61.50;;;;;;5009853;28;29148;-59
2022/01/01 01:04:04;;;;;;;29.98;19.98;;;22.00;61.50;;;;;;5009713;28;20080;-58
2022/01/01 01:06:30;;;;;;;23.85;19.85;;;22.00;61.40;;;;;;5010420;28;20564;-59
2022/01/01 01:08:58;;;;;;;27.35;20.70;;;22.00;61.50;;;;;;5010278;28;20029;-59
2022/01/01 01:11:24;;;;;;;24.60;19.88;;;21.90;61.40;;;;;;5011294;28;20420;-58
2022/01/01 01:13:57;;;;;;;25.27;20.30;;;21.90;61.40;;;;;;5009132;28;20102;-58
2022/01/01 01:16:24;;;;;;;24.98;19.38;;;21.90;61.00;;;;;;5010233;28;20056;-59
2022/01/01 01:18:51;;;;;;;24.17;20.52;;;21.90;60.70;;;;;;5012885;28;20057;-60
2022/01/01 01:21:17;;;;;;;23.15;19.40;;;21.90;60.50;;;;;;5010532;28;20620;-58
2022/01/01 01:23:43;;;;;;;25.55;20.95;;;21.90;60.20;;;;;;5010107;28;20041;-59
2022/01/01 01:26:08;;;;;;;24.00;19.73;;;21.80;60.00;;;;;;5010776;28;20034;-58
2022/01/01 01:28:34;;;;;;;26.98;19.88;;;21.80;60.00;;;;;;5007437;28;20072;-59
2022/01/01 01:31:00;;;;;;;24.98;19.50;;;21.80;60.00;;;;;;5007772;28;27545;-58
2022/01/01 01:33:26;;;;;;;28.23;20.65;;;21.80;60.00;;;;;;5014404;28;20393;-59
2022/01/01 01:35:52;;;;;;;25.60;20.52;;;21.70;59.90;;;;;;5010789;28;20042;-58
2022/01/01 01:38:17;;;;;;;27.33;20.98;;;21.80;59.90;;;;;;5014461;28;20473;-61
2022/01/01 01:40:43;;;;;;;25.40;21.40;;;21.70;59.60;;;;;;5008227;28;21363;-60
2022/01/01 01:43:11;;;;;;;24.50;20.55;;;21.70;59.20;;;;;;5011121;28;20041;-60
2022/01/01 01:45:37;;;;;;;29.25;21.38;;;21.70;59.10;;;;;;5007670;28;25568;-60
2022/01/01 01:48:03;;;;;;;24.17;20.58;;;21.70;58.80;;;;;;5011296;28;20124;-59
2022/01/01 01:50:30;;;;;;;29.25;21.10;;;21.70;58.70;;;;;;5014251;28;20485;-59
2022/01/01 01:52:58;;;;;;;28.00;20.98;;;21.70;58.60;;;;;;5010895;28;20405;-60
2022/01/01 01:55:27;;;;;;;25.35;20.88;;;21.70;58.50;;;;;;5011670;28;20151;-59
2022/01/01 01:57:52;;;;;;;26.75;21.00;;;21.70;58.50;;;;;;5006932;28;25685;-59
2022/01/01 02:01:00;;;;;;;27.15;20.85;;;21.70;58.30;;;;;;5010086;28;20559;-59
2022/01/01 02:03:23;;;;;;;28.27;22.02;;;21.70;58.20;;;;;;5010316;28;20416;-60
2022/01/01 02:05:50;;;;;;;29.00;22.55;;;21.60;58.10;;;;;;5009411;28;20051;-59
2022/01/01 02:08:17;;;;;;;26.50;21.70;;;21.60;58.00;;;;;;5008981;28;20489;-59
2022/01/01 02:10:42;;;;;;;28.17;23.08;;;21.60;57.90;;;;;;5012411;28;20096;-59
2022/01/01 02:13:17;;;;;;;26.70;21.80;;;21.60;57.70;;;;;;5005553;28;28998;-60
2022/01/01 02:18:17;;;;;;;28.83;22.88;;;21.60;57.60;;;;;;5011536;28;20057;-60
2022/01/01 02:20:49;;;;;;;27.20;21.38;;;21.60;57.50;;;;;;5008696;28;20045;-60
2022/01/01 02:23:16;;;;;;;31.55;22.85;;;21.60;57.50;;;;;;5012716;28;20048;-59
2022/01/01 02:25:42;;;;;;;29.85;22.27;;;21.50;57.30;;;;;;5014352;28;20141;-60
2022/01/01 02:28:12;;;;;;;26.23;22.33;;;21.50;57.20;;;;;;5012829;28;20041;-60
2022/01/01 02:30:38;;;;;;;26.92;22.25;;;21.50;57.10;;;;;;5016380;28;20048;-59
2022/01/01 02:33:04;;;;;;;27.77;22.33;;;21.50;57.10;;;;;;5015606;28;20060;-60
2022/01/01 02:35:29;;;;;;;28.00;22.13;;;21.50;57.10;;;;;;5012303;28;20041;-60
2022/01/01 02:37:55;;;;;;;28.10;22.33;;;21.50;57.10;;;;;;5018225;28;20763;-59
2022/01/01 02:40:20;;;;;;;27.88;23.60;;;21.50;57.00;;;;;;5013080;28;21262;-60
2022/01/01 02:42:46;;;;;;;27.35;22.77;;;21.50;56.80;;;;;;5012830;28;20588;-59
2022/01/01 02:45:14;;;;;;;29.70;23.35;;;21.50;56.80;;;;;;5015269;28;20052;-60
2022/01/01 02:47:40;;;;;;;27.42;22.48;;;21.50;56.70;;;;;;5014208;28;20029;-61
2022/01/01 02:50:07;;;;;;;29.67;23.42;;;21.50;56.70;;;;;;5011745;28;20049;-59
2022/01/01 02:52:33;;;;;;;27.50;23.52;;;21.50;56.60;;;;;;5012953;28;20030;-60
2022/01/01 02:54:59;;;;;;;29.30;24.35;;;21.50;56.60;;;;;;5012689;28;20522;-60
2022/01/01 02:57:25;;;;;;;31.77;23.92;;;21.40;56.50;;;;;;5013475;28;20195;-60
2022/01/01 02:59:50;;;;;;;27.63;23.38;;;21.40;56.50;;;;;;5013257;28;20908;-60
2022/01/01 03:02:16;;;;;;;32.20;24.50;;;21.40;57.10;;;;;;5006926;28;20618;-60
2022/01/01 03:04:42;;;;;;;29.70;24.23;;;21.40;56.30;;;;;;5011294;28;20037;-60
2022/01/01 03:07:07;;;;;;;29.40;23.45;;;21.40;56.40;;;;;;5012070;28;20111;-60
2022/01/01 03:09:34;;;;;;;28.75;22.45;;;21.40;56.40;;;;;;5012378;28;28349;-60
2022/01/01 03:12:04;;;;;;;28.20;23.67;;;21.40;56.30;;;;;;5011970;28;20199;-60
2022/01/01 03:14:30;;;;;;;27.10;22.50;;;21.40;56.40;;;;;;5013926;28;20398;-60
2022/01/01 03:16:56;;;;;;;29.33;23.60;;;21.40;56.20;;;;;;5043853;28;20733;-60
2022/01/01 03:19:22;;;;;;;29.00;24.05;;;21.40;56.20;;;;;;5013498;28;20111;-60
2022/01/01 03:21:47;;;;;;;31.75;25.20;;;21.40;56.20;;;;;;5009816;28;20042;-59
2022/01/01 03:24:13;;;;;;;29.13;23.25;;;21.40;56.10;;;;;;5012832;28;28943;-61
2022/01/01 03:26:39;;;;;;;26.63;23.30;;;21.40;56.10;;;;;;5014090;28;20494;-59
2022/01/01 03:29:04;;;;;;;27.95;23.58;;;21.40;56.10;;;;;;5015924;28;20413;-59
2022/01/01 03:31:30;;;;;;;28.77;23.00;;;21.30;56.10;;;;;;5012928;28;20682;-60
2022/01/01 03:33:58;;;;;;;27.85;22.50;;;21.30;56.10;;;;;;5013546;28;20800;-60
2022/01/01 03:36:26;;;;;;;25.55;22.75;;;21.30;56.00;;;;;;5011844;28;30696;-60
2022/01/01 03:38:52;;;;;;;25.88;23.00;;;21.30;56.10;;;;;;5019965;28;20049;-59
2022/01/01 03:41:18;;;;;;;26.33;22.48;;;21.30;56.00;;;;;;5014952;28;20317;-60
2022/01/01 03:43:44;;;;;;;25.75;21.95;;;21.30;56.00;;;;;;5013862;28;20378;-60
2022/01/01 03:46:10;;;;;;;25.95;22.05;;;21.30;55.90;;;;;;5009239;28;20095;-60
2022/01/01 03:48:35;;;;;;;26.83;22.73;;;21.30;55.90;;;;;;5016018;28;20813;-59
2022/01/01 03:51:01;;;;;;;29.38;23.10;;;21.30;56.00;;;;;;5010146;28;27107;-60
2022/01/01 03:53:26;;;;;;;25.25;21.48;;;21.30;55.90;;;;;;5015529;28;20038;-59
2022/01/01 03:55:53;;;;;;;26.25;21.98;;;21.30;55.90;;;;;;5012466;28;20045;-59
2022/01/01 03:58:18;;;;;;;25.65;22.25;;;21.30;55.90;;;;;;5013297;28;20037;-60
2022/01/01 04:00:44;;;;;;;28.40;21.65;;;21.30;55.90;;;;;;5012340;28;21103;-59
2022/01/01 04:03:12;;;;;;;26.90;21.20;;;21.30;55.80;;;;;;5012147;28;20045;-59
2022/01/01 04:05:40;;;;;;;23.88;20.08;;;21.20;55.80;;;;;;5009590;28;20073;-60
2022/01/01 04:08:07;;;;;;;28.10;22.10;;;21.20;55.80;;;;;;5012197;28;20397;-59
2022/01/01 04:10:33;;;;;;;24.38;20.20;;;21.30;55.80;;;;;;5011082;28;20042;-60
2022/01/01 04:13:00;;;;;;;27.27;20.70;;;21.20;55.80;;;;;;5012010;28;20116;-59
2022/01/01 04:15:29;;;;;;;23.95;20.63;;;21.20;55.80;;;;;;5012207;28;20045;-59
2022/01/01 04:18:00;;;;;;;25.98;21.33;;;21.20;55.80;;;;;;5011620;28;20077;-60
2022/01/01 04:20:27;;;;;;;23.30;19.95;;;21.20;55.80;;;;;;5010960;28;28742;-60
2022/01/01 04:22:54;;;;;;;26.08;21.25;;;21.20;55.80;;;;;;5012037;28;20091;-59
2022/01/01 04:25:20;;;;;;;25.80;20.65;;;21.20;55.80;;;;;;5044850;28;20509;-60
2022/01/01 04:27:47;;;;;;;23.45;19.90;;;21.20;55.70;;;;;;5009632;28;20042;-60
2022/01/01 04:30:13;;;;;;;24.02;19.75;;;21.20;55.70;;;;;;5013371;28;20121;-60
2022/01/01 04:32:39;;;;;;;23.60;20.33;;;21.20;55.70;;;;;;5009231;28;29531;-60
2022/01/01 04:35:05;;;;;;;23.45;19.48;;;21.20;55.60;;;;;;5012908;28;20025;-59
2022/01/01 04:37:31;;;;;;;26.13;19.75;;;21.20;55.60;;;;;;5011334;28;20555;-60
2022/01/01 04:39:59;;;;;;;23.67;19.27;;;21.20;55.60;;;;;;5009952;28;20054;-60
2022/01/01 04:42:25;;;;;;;22.90;19.52;;;21.20;55.60;;;;;;5013815;28;20045;-59
2022/01/01 04:44:51;;;;;;;21.27;19.00;;;21.20;55.60;;;;;;5011123;28;20091;-60
2022/01/01 04:47:17;;;;;;;23.90;19.08;;;21.20;55.60;;;;;;5010094;28;27397;-59
2022/01/01 04:49:42;;;;;;;22.90;18.42;;;21.20;55.60;;;;;;5012648;28;20096;-59
2022/01/01 04:52:08;;;;;;;21.65;18.60;;;21.20;55.60;;;;;;5010583;28;20132;-60
2022/01/01 04:54:38;;;;;;;24.67;19.70;;;21.20;55.60;;;;;;5011505;28;20080;-60
2022/01/01 04:57:04;;;;;;;24.27;19.02;;;21.20;55.50;;;;;;5009507;28;20049;-60
2022/01/01 04:59:29;;;;;;;20.38;17.35;;;21.10;55.40;;;;;;5012543;28;20105;-60
2022/01/01 05:01:55;;;;;;;24.23;18.13;;;21.10;55.50;;;;;;5006596;28;26995;-60
2022/01/01 05:04:20;;;;;;;21.35;17.13;;;21.10;55.50;;;;;;5009529;28;20045;-59
2022/01/01 05:06:49;;;;;;;24.90;17.60;;;21.10;55.40;;;;;;5009940;28;20429;-60
2022/01/01 05:09:18;;;;;;;21.40;17.70;;;21.10;55.40;;;;;;5012179;28;20038;-59
2022/01/01 05:11:44;;;;;;;19.95;16.70;;;21.10;55.40;;;;;;5012863;28;20613;-60
2022/01/01 05:14:10;;;;;;;21.10;17.25;;;21.10;55.40;;;;;;5011290;28;20144;-60
2022/01/01 05:16:35;;;;;;;22.55;16.95;;;21.10;55.40;;;;;;5012042;28;30818;-60
2022/01/01 05:19:01;;;;;;;20.40;16.73;;;21.10;55.40;;;;;;5009888;28;20064;-60
2022/01/01 05:21:32;;;;;;;20.08;15.32;;;21.10;55.70;;;;;;5009888;28;21026;-59
2022/01/01 05:24:01;;;;;;;;;;;21.10;55.30;;;;;;5010942;28;20482;-60
2022/01/01 05:26:26;;;;;;;20.45;15.30;;;21.10;55.20;;;;;;5009811;28;19925;-60
2022/01/01 05:28:52;;;;;;;22.88;16.33;;;21.00;55.50;;;;;;5010986;28;29236;-61
2022/01/01 05:31:21;;;;;;;20.13;15.38;;;21.00;55.40;;;;;;5009463;28;20065;-60
2022/01/01 05:33:48;;;;;;;20.48;15.38;;;21.00;55.40;;;;;;5012323;28;20053;-60
2022/01/01 05:36:14;;;;;;;20.67;15.20;;;21.00;55.40;;;;;;5008628;28;20041;-60
2022/01/01 05:38:42;;;;;;;20.90;15.00;;;21.00;55.40;;;;;;5014641;28;20414;-60
2022/01/01 05:41:08;;;;;;;17.02;14.05;;;21.00;55.40;;;;;;5011811;28;20044;-60
2022/01/01 05:43:34;;;;;;;17.58;13.98;;;21.00;55.40;;;;;;5009220;28;26748;-60
2022/01/01 05:46:00;;;;;;;17.75;14.25;;;21.00;55.40;;;;;;5015054;28;20088;-60
2022/01/01 05:48:25;;;;;;;18.55;13.45;;;21.00;55.40;;;;;;5009567;28;20385;-60
2022/01/01 05:50:51;;;;;;;14.52;12.65;;;21.00;55.40;;;;;;5012072;28;20068;-60
2022/01/01 05:53:17;;;;;;;17.42;13.38;;;21.00;55.40;;;;;;5010831;28;20075;-60
2022/01/01 05:55:42;;;;;;;14.55;12.57;;;21.00;55.40;;;;;;5011701;28;20490;-60
2022/01/01 05:58:08;;;;;;;15.27;11.90;;;21.00;55.40;;;;;;5009314;28;20073;-59
2022/01/01 06:00:35;;;;;;;16.27;11.80;;;21.00;55.40;;;;;;5011088;28;20030;-60
2022/01/01 06:03:00;;;;;;;15.20;12.55;;;21.00;55.40;;;;;;5009103;28;20528;-60
2022/01/01 06:05:30;;;;;;;16.67;12.88;;;21.00;55.40;;;;;;5010192;28;20132;-60
2022/01/01 06:07:57;;;;;;;16.08;12.13;;;21.00;55.40;;;;;;5010511;28;20030;-60
2022/01/01 06:10:24;;;;;;;15.95;12.85;;;21.00;55.50;;;;;;5010356;28;20076;-60
2022/01/01 06:12:49;;;;;;;14.70;11.40;;;21.00;55.50;;;;;;5007156;28;24950;-60
2022/01/01 06:15:15;;;;;;;14.90;11.68;;;21.00;55.40;;;;;;5011732;28;20048;-60
2022/01/01 06:17:41;;;;;;;16.00;12.32;;;21.00;55.40;;;;;;5009864;28;20512;-60
2022/01/01 06:20:07;;;;;;;14.70;11.80;;;21.00;55.40;;;;;;5009159;28;20216;-60
2022/01/01 06:22:32;;;;;;;15.32;11.65;;;21.00;55.40;;;;;;5011781;28;20076;-59
2022/01/01 06:24:58;;;;;;;12.80;11.38;;;21.00;55.50;;;;;;5008204;28;20972;-59
2022/01/01 06:27:24;;;;;;;14.10;11.50;;;21.00;55.50;;;;;;5011904;28;20449;-59
2022/01/01 06:29:50;;;;;;;13.75;11.23;;;21.00;55.50;;;;;;5008385;28;20124;-60
2022/01/01 06:32:16;;;;;;;12.70;10.63;;;21.00;55.40;;;;;;5011445;28;20069;-60
2022/01/01 06:34:41;;;;;;;14.27;10.45;;;21.00;55.50;;;;;;5009341;28;20121;-59
2022/01/01 06:37:07;;;;;;;12.52;10.20;;;21.00;55.50;;;;;;5010558;28;20056;-59
2022/01/01 06:39:33;;;;;;;12.88;10.20;;;21.10;55.50;;;;;;5011107;28;29214;-59
2022/01/01 06:41:58;;;;;;;14.40;10.50;;;21.10;55.60;;;;;;5010329;28;20132;-60
2022/01/01 06:44:24;;;;;;;12.40;9.90;;;21.10;55.50;;;;;;5010283;28;21018;-60
2022/01/01 06:46:49;;;;;;;11.70;9.70;;;21.10;55.60;;;;;;5008775;28;21299;-60
2022/01/01 06:49:15;;;;;;;12.30;10.00;;;21.10;55.50;;;;;;5009604;28;20041;-60
2022/01/01 06:51:41;;;;;;;12.32;9.48;;;21.10;55.60;;;;;;5009642;28;20033;-60
2022/01/01 06:54:06;;;;;;;12.40;9.40;;;21.10;56.30;;;;;;5007785;28;26513;-60
2022/01/01 06:56:32;;;;;;;14.05;10.55;;;21.10;55.60;;;;;;5010174;28;20046;-60
2022/01/01 06:58:58;;;;;;;12.88;9.73;;;21.10;55.60;;;;;;5010952;28;20448;-59
2022/01/01 07:01:23;;;;;;;12.73;9.30;;;21.10;55.60;;;;;;5011137;28;20392;-59
2022/01/01 07:03:49;;;;;;;11.98;9.23;;;21.10;55.50;;;;;;5008088;28;20743;-59
2022/01/01 07:06:14;;;;;;;11.85;9.10;;;21.20;55.60;;;;;;5009086;28;20153;-60
2022/01/01 07:08:40;;;;;;;11.10;9.15;;;21.20;55.60;;;;;;5011331;28;20216;-60
2022/01/01 07:11:06;;;;;;;10.98;8.98;;;21.20;55.60;;;;;;5010742;28;20120;-60
2022/01/01 07:13:32;;;;;;;12.25;8.82;;;21.20;55.60;;;;;;5015058;28;20517;-60
2022/01/01 07:15:57;;;;;;;10.38;8.52;;;21.20;55.50;;;;;;5013166;28;20188;-60
2022/01/01 07:18:23;;;;;;;11.38;8.77;;;21.20;55.50;;;;;;5015081;28;20054;-59
2022/01/01 07:20:49;;;;;;;10.77;8.80;;;21.20;55.60;;;;;;5010922;28;20120;-60
2022/01/01 07:23:14;;;;;;;10.25;8.43;;;21.20;55.50;;;;;;5012221;28;29144;-60
2022/01/01 07:25:40;;;;;;;10.63;7.80;;;21.20;55.60;;;;;;5014810;28;20030;-60
2022/01/01 07:28:05;;;;;;;11.95;8.30;;;21.20;55.50;;;;;;5013394;28;20131;-59
2022/01/01 07:30:31;;;;;;;10.65;8.07;;;21.30;55.60;;;;;;5013678;28;20037;-60
2022/01/01 07:32:56;;;;;;;10.10;7.95;;;21.20;55.50;;;;;;5012955;28;20065;-60
2022/01/01 07:35:22;;;;;;;9.68;7.78;;;21.30;55.60;;;;;;5012707;28;29232;-60
2022/01/01 07:37:49;;;;;;;10.48;8.07;;;21.30;55.60;;;;;;5014687;28;20124;-60
2022/01/01 07:40:17;;;;;;;10.82;8.48;;;21.30;55.60;;;;;;5013003;28;20049;-60
2022/01/01 07:42:43;;;;;;;9.95;7.53;;;21.30;56.30;;;;;;5013379;28;20042;-59
2022/01/01 07:45:10;;;;;;;8.75;7.68;;;21.30;55.50;;;;;;5014439;28;20045;-60
2022/01/01 07:47:36;;;;;;;10.15;8.13;;;21.30;55.50;;;;;;5012581;28;20071;-60
2022/01/01 07:50:03;;;;;;;9.57;7.50;;;21.30;55.60;;;;;;5013756;28;20037;-59
2022/01/01 07:52:29;;;;;;;10.68;7.30;;;21.30;55.50;;;;;;5012127;28;20053;-60
2022/01/01 07:54:55;;;;;;;10.02;7.45;;;21.30;55.60;;;;;;5011946;28;20056;-59
2022/01/01 07:57:20;;;;;;;8.48;7.18;;;21.30;55.50;;;;;;5012445;28;20148;-60
2022/01/01 07:59:46;;;;;;;8.52;7.47;;;21.40;55.50;;;;;;5012731;28;20504;-60
2022/01/01 08:02:11;;;;;;;9.95;7.65;;;21.40;55.50;;;;;;5012582;28;20095;-60
2022/01/01 08:04:37;;;;;;;9.32;7.07;;;21.40;55.40;;;;;;5011586;28;20528;-60
2022/01/01 08:07:02;;;;;;;9.23;7.15;;;21.40;55.30;;;;;;5014042;28;20140;-59
2022/01/01 08:09:28;;;;;;;10.32;7.22;;;21.40;55.30;;;;;;5012174;28;20188;-60
2022/01/01 08:11:54;;;;;;;9.98;7.30;;;21.50;55.30;;;;;;5013565;28;20041;-60
2022/01/01 08:14:21;;;;;;;9.93;7.45;;;21.50;55.30;;;;;;5008960;28;20041;-59
2022/01/01 08:17:00;;;;;;;9.13;7.20;;;21.50;55.30;;;;;;5013992;28;20053;-60
2022/01/01 08:19:27;;;;;;;7.55;6.57;;;21.50;55.20;;;;;;5010378;28;31254;-60
2022/01/01 08:21:54;;;;;;;8.20;7.15;;;21.50;55.20;;;;;;5011247;28;20119;-60
2022/01/01 08:24:20;;;;;;;8.73;6.95;;;21.50;55.20;;;;;;5012651;28;20041;-59
2022/01/01 08:26:45;;;;;;;9.88;6.50;;;21.50;55.20;;;;;;5010033;28;20114;-59
2022/01/01 08:29:11;;;;;;;8.38;7.10;;;21.50;55.90;;;;;;5015287;28;20440;-59
2022/01/01 08:31:36;;;;;;;9.30;7.35;;;21.50;55.10;;;;;;5009623;28;22782;-60
2022/01/01 08:34:02;;;;;;;7.95;7.13;;;21.50;55.10;;;;;;5015455;28;20830;-60
2022/01/01 08:36:28;;;;;;;8.02;7.20;;;21.50;55.10;;;;;;5010589;28;20425;-59
2022/01/01 08:38:53;;;;;;;8.60;7.10;;;21.50;55.20;;;;;;5013452;28;20042;-59
2022/01/01 08:41:19;;;;;;;9.07;7.15;;;21.50;55.20;;;;;;5011343;28;20052;-59
2022/01/01 08:43:44;;;;;;;8.25;7.18;;;21.50;55.10;;;;;;5011417;28;20402;-59
2022/01/01 08:46:10;;;;;;;7.55;6.78;;;21.50;55.10;;;;;;5013357;28;29800;-59
2022/01/01 08:48:36;;;;;;;8.18;7.38;;;21.50;55.10;;;;;;5012134;28;20840;-59
2022/01/01 08:51:16;;;;;;;8.85;7.10;;;21.50;55.20;;;;;;5012805;28;20140;-60
2022/01/01 08:53:43;;;;;;;10.68;7.40;;;21.50;55.10;;;;;;5012433;28;20046;-59
2022/01/01 08:56:09;;;;;;;9.80;7.25;;;21.50;55.10;;;;;;5016436;28;20501;-58
2022/01/01 08:58:35;;;;;;;10.15;6.82;;;21.50;55.20;;;;;;5012740;28;20049;-59
2022/01/01 09:01:02;;;;;;;9.20;6.72;;;21.50;55.20;;;;;;5010602;28;26985;-59
2022/01/01 09:03:28;;;;;;;7.28;6.45;;;21.60;55.20;;;;;;5011351;28;20042;-59
2022/01/01 09:05:53;;;;;;;9.93;6.43;;;21.60;55.30;;;;;;5004500;28;21354;-59
2022/01/01 09:08:19;;;;;;;8.23;6.30;;;21.60;55.30;;;;;;5009068;28;20061;-59
2022/01/01 09:10:45;;;;;;;7.88;5.95;;;21.60;55.40;;;;;;5007948;28;20675;-60
2022/01/01 09:13:10;;;;;;;7.47;6.15;;;21.60;55.50;;;;;;5012941;28;20465;-59
2022/01/01 09:15:36;;;;;;;7.57;6.35;;;21.60;55.50;;;;;;5008350;28;25099;-60
2022/01/01 09:18:02;;;;;;;7.25;6.18;;;21.60;55.50;;;;;;5010578;28;23676;-60
2022/01/01 09:20:27;;;;;;;7.75;5.85;;;21.70;55.50;;;;;;5012738;28;20045;-59
2022/01/01 09:22:53;;;;;;;8.15;6.18;;;21.60;55.50;;;;;;5011840;28;20065;-59
2022/01/01 09:25:18;;;;;;;9.00;6.45;;;21.60;55.50;;;;;;5012051;28;20052;-59
2022/01/01 09:27:44;;;;;;;10.40;6.32;;;21.70;55.60;;;;;;5012367;28;20425;-60
2022/01/01 09:30:10;;;;;;;9.32;6.05;;;21.70;55.70;;;;;;5010572;28;20415;-60
2022/01/01 09:32:36;;;;;;;8.13;6.32;;;21.60;55.80;;;;;;5009721;28;20042;-60
2022/01/01 09:35:02;;;;;;;7.90;6.10;;;21.70;55.80;;;;;;5010538;28;20418;-59
2022/01/01 09:37:29;;;;;;;6.57;5.60;;;21.70;56.20;;;;;;5010017;28;20037;-59
2022/01/01 09:39:56;;;;;;;10.18;6.30;;;21.70;56.20;;;;;;5010874;28;20045;-59
2022/01/01 09:42:22;;;;;;;7.90;5.72;;;21.70;56.40;;;;;;5011566;28;20666;-59
2022/01/01 09:44:50;;;;;;;6.70;5.38;;;21.70;57.10;;;;;;5008455;28;20042;-59
2022/01/01 09:47:16;;;;;;;7.78;6.25;;;21.70;56.40;;;;;;5012316;28;20045;-60
2022/01/01 09:49:41;;;;;;;7.20;5.47;;;21.70;56.40;;;;;;5006203;28;20040;-59
2022/01/01 09:52:09;;;;;;;6.43;5.68;;;21.70;56.50;;;;;;5010550;28;20037;-60
2022/01/01 09:54:35;;;;;;;7.25;5.68;;;21.70;56.60;;;;;;5009484;28;20124;-59
2022/01/01 09:57:01;;;;;;;7.00;5.68;;;21.70;56.60;;;;;;5011987;28;20052;-60
2022/01/01 09:59:26;;;;;;;6.50;5.20;;;21.70;56.70;;;;;;5010505;28;20033;-60
2022/01/01 10:01:52;;;;;;;7.35;5.30;;;21.70;56.70;;;;;;5009934;28;20042;-60
2022/01/01 10:04:18;;;;;;;7.47;4.88;;;21.70;56.70;;;;;;5009187;28;20043;-61
2022/01/01 10:06:59;;;;;;;7.25;5.50;;;21.70;56.90;;;;;;5009419;28;20041;-60
2022/01/01 10:09:34;;;;;;;7.22;5.40;;;21.70;56.90;;;;;;5010639;28;20056;-60
2022/01/01 10:12:01;;;;;;;10.50;5.28;;;21.70;56.90;;;;;;5008887;28;32033;-63
2022/01/01 10:14:34;;;;;;;9.15;5.20;;;21.70;56.90;;;;;;5010836;28;20026;-59
2022/01/01 10:17:00;;;;;;;8.35;5.05;;;21.70;56.90;;;;;;5007087;28;20041;-60
2022/01/01 10:19:32;;;;;;;7.00;5.28;;;21.70;57.00;;;;;;5004558;28;20391;-61
2022/01/01 10:22:03;;;;;;;8.15;5.03;;;21.70;57.00;;;;;;5014613;28;20059;-61
2022/01/01 10:27:42;;;;;;;7.15;4.43;;;21.70;57.00;;;;;;5027639;28;22628;-60
2022/01/01 10:30:00;;;;;;;6.60;4.45;;;21.70;57.20;;;;;;5010030;28;20504;-60
2022/01/01 10:32:25;;;;;;;7.57;4.63;;;21.70;57.20;;;;;;5024353;28;20068;-60
2022/01/01 10:34:51;;;;;;;7.45;4.60;;;21.70;57.20;;;;;;5007953;28;20133;-61
2022/01/01 10:37:17;;;;;;;7.10;4.93;;;21.70;57.30;;;;;;5011066;28;20038;-60
2022/01/01 10:39:50;;;;;;;8.30;4.63;;;21.70;57.30;;;;;;5008002;28;31032;-59
2022/01/01 10:42:17;;;;;;;7.18;4.10;;;21.80;57.50;;;;;;5008249;28;20069;-60
2022/01/01 10:44:47;;;;;;;5.50;4.38;;;21.80;57.60;;;;;;5010448;28;20034;-60
2022/01/01 10:47:25;;;;;;;9.13;4.88;;;21.70;57.60;;;;;;5011548;28;20508;-60
2022/01/01 10:52:35;;;;;;;6.72;4.10;;;21.70;57.80;;;;;;5014554;28;29561;-60
2022/01/01 10:55:06;;;;;;;5.53;4.18;;;21.80;57.80;;;;;;5014000;28;20052;-61
2022/01/01 10:57:41;;;;;;;7.68;4.13;;;21.80;57.80;;;;;;5014530;28;20152;-60
2022/01/01 11:00:11;;;;;;;6.55;4.30;;;21.80;57.90;;;;;;5013155;28;20037;-60
2022/01/01 11:02:39;;;;;;;6.20;4.13;;;21.80;57.90;;;;;;5013274;28;20034;-61
2022/01/01 11:05:06;;;;;;;7.15;4.63;;;21.80;58.00;;;;;;5013077;28;20557;-60
2022/01/01 11:07:32;;;;;;;6.03;4.03;;;21.80;58.00;;;;;;5014801;28;30551;-60
2022/01/01 11:09:59;;;;;;;5.90;4.28;;;21.80;58.00;;;;;;5015564;28;20041;-61
2022/01/01 11:12:29;;;;;;;6.05;3.85;;;21.80;58.00;;;;;;5017110;28;20045;-57
2022/01/01 11:14:57;;;;;;;6.70;4.07;;;21.80;58.10;;;;;;5013634;28;20041;-58
2022/01/01 11:17:23;;;;;;;6.38;3.90;;;21.80;58.00;;;;;;5011273;28;20057;-57
2022/01/01 11:19:49;;;;;;;4.97;3.60;;;21.80;58.00;;;;;;5013239;28;20053;-57
2022/01/01 11:22:16;;;;;;;6.78;4.10;;;21.80;58.00;;;;;;5014035;28;30866;-57
2022/01/01 11:24:42;;;;;;;5.55;3.72;;;21.80;58.00;;;;;;5015128;28;20087;-58
2022/01/01 11:27:08;;;;;;;6.57;4.00;;;21.80;58.10;;;;;;5014026;28;20640;-58
2022/01/01 11:29:35;;;;;;;5.22;3.83;;;21.80;58.10;;;;;;5011838;28;20409;-58
2022/01/01 11:32:03;;;;;;;6.75;4.05;;;21.80;58.10;;;;;;5014161;28;20055;-58
2022/01/01 11:34:31;;;;;;;4.43;3.47;;;21.80;58.20;;;;;;5011537;28;28440;-58
2022/01/01 11:36:57;;;;;;;7.82;4.35;;;21.80;58.30;;;;;;5013138;28;20053;-58
2022/01/01 11:39:25;;;;;;;5.47;4.20;;;21.80;58.10;;;;;;5013051;28;20048;-58
2022/01/01 11:41:51;;;;;;;6.72;3.90;;;21.80;58.10;;;;;;5013513;28;20048;-58
2022/01/01 11:44:32;;;;;;;5.40;3.72;;;21.80;58.00;;;;;;5014583;28;20515;-58
2022/01/01 11:47:03;;;;;;;6.15;3.95;;;21.80;58.00;;;;;;5014354;28;20134;-58
2022/01/01 11:49:31;;;;;;;6.05;4.15;;;21.70;58.00;;;;;;5012319;28;27312;-57
2022/01/01 11:51:57;;;;;;;4.93;3.50;;;21.80;58.10;;;;;;5012438;28;20452;-58
2022/01/01 11:54:34;;;;;;;4.20;3.40;;;21.80;58.10;;;;;;5014150;28;20033;-57
2022/01/01 11:57:04;;;;;;;5.10;3.80;;;21.80;58.20;;;;;;5013105;28;20112;-60
2022/01/01 11:59:40;;;;;;;5.70;3.70;;;21.80;58.00;;;;;;5012067;28;20033;-61
2022/01/01 12:02:30;;;;;;;5.65;3.55;;;21.70;58.00;;;;;;5013560;28;20507;-59
2022/01/01 12:05:08;;;;;;;5.72;3.90;;;21.80;57.90;;;;;;5014594;28;20049;-61
2022/01/01 12:07:44;;;;;;;6.70;3.35;;;21.80;57.90;;;;;;5008714;28;20042;-60
2022/01/01 12:10:09;;;;;;;4.47;3.10;;;21.80;57.80;;;;;;5011784;28;20048;-60
2022/01/01 12:12:45;;;;;;;4.18;3.33;;;21.70;57.70;;;;;;5010184;28;20034;-60
2022/01/01 12:15:27;;;;;;;6.20;3.80;;;21.70;57.70;;;;;;5012744;28;20393;-61
2022/01/01 12:17:55;;;;;;;7.22;4.32;;;21.70;57.70;;;;;;5010221;28;20062;-61
2022/01/01 12:20:27;;;;;;;4.35;3.17;;;21.70;57.70;;;;;;5011957;28;20056;-61
2022/01/01 12:22:53;;;;;;;6.18;3.30;;;21.70;57.80;;;;;;5012004;28;20041;-61
2022/01/01 12:25:27;;;;;;;4.88;3.47;;;21.70;57.80;;;;;;5011537;28;20046;-61
2022/01/01 12:27:55;;;;;;;4.78;3.10;;;21.70;57.70;;;;;;5011961;28;20187;-60
2022/01/01 12:30:32;;;;;;;5.63;3.20;;;21.70;57.80;;;;;;5010489;28;20037;-60
2022/01/01 12:32:58;;;;;;;4.65;2.90;;;21.70;57.70;;;;;;5010474;28;31481;-60
2022/01/01 12:35:41;;;;;;;6.60;3.30;;;21.70;57.80;;;;;;5012027;28;20049;-60
2022/01/01 12:38:12;;;;;;;8.38;3.17;;;21.70;57.70;;;;;;5012443;28;20467;-58
2022/01/01 12:40:58;;;;;;;4.93;3.20;;;21.70;57.70;;;;;;5013101;28;20071;-60
2022/01/01 12:43:25;;;;;;;3.42;2.70;;;21.70;57.70;;;;;;5008012;28;20045;-59